sensor_id;sensor_type;location;lat;lon;timestamp;temperature;humidity
20654;DHT22;21083;50.898;4.902;2022-11-20T00:00:40;5.10;99.90
20654;DHT22;21083;50.898;4.902;2022-11-20T00:03:07;5.10;99.90
20654;DHT22;21083;50.898;4.902;2022-11-20T00:05:35;5.10;99.90
20654;DHT22;21083;50.898;4.902;2022-11-20T00:08:02;5.20;99.90
20654;DHT22;21083;50.898;4.902;2022-11-20T00:10:29;5.30;99.90
20654;DHT22;21083;50.898;4.902;2022-11-20T00:12:57;5.30;99.90
20654;DHT22;21083;50.898;4.902;2022-11-20T00:15:24;5.20;99.90
20654;DHT22;21083;50.898;4.902;2022-11-20T00:17:51;5.20;99.90
20654;DHT22;21083;50.898;4.902;2022-11-20T00:20:18;5.20;99.90
20654;DHT22;21083;50.898;4.902;2022-11-20T00:22:46;5.20;99.90
20654;DHT22;21083;50.898;4.902;2022-11-20T00:25:13;5.10;99.90
20654;DHT22;21083;50.898;4.902;2022-11-20T00:27:40;5.10;99.90
20654;DHT22;21083;50.898;4.902;2022-11-20T00:30:08;4.80;99.90
20654;DHT22;21083;50.898;4.902;2022-11-20T00:32:35;4.70;99.90
20654;DHT22;21083;50.898;4.902;2022-11-20T00:35:02;4.70;99.90
20654;DHT22;21083;50.898;4.902;2022-11-20T00:37:29;4.60;99.90
20654;DHT22;21083;50.898;4.902;2022-11-20T00:39:57;4.70;99.90
20654;DHT22;21083;50.898;4.902;2022-11-20T00:42:24;4.90;99.90
20654;DHT22;21083;50.898;4.902;2022-11-20T00:44:51;4.90;99.90
20654;DHT22;21083;50.898;4.902;2022-11-20T00:47:18;5.00;99.90
20654;DHT22;21083;50.898;4.902;2022-11-20T00:49:44;5.00;99.90
20654;DHT22;21083;50.898;4.902;2022-11-20T00:52:11;5.00;99.90
20654;DHT22;21083;50.898;4.902;2022-11-20T00:54:38;5.00;99.90
20654;DHT22;21083;50.898;4.902;2022-11-20T00:57:06;5.10;99.90
20654;DHT22;21083;50.898;4.902;2022-11-20T00:59:33;5.10;99.90
20654;DHT22;21083;50.898;4.902;2022-11-20T01:02:00;4.90;99.90
20654;DHT22;21083;50.898;4.902;2022-11-20T01:04:27;4.80;99.90
20654;DHT22;21083;50.898;4.902;2022-11-20T01:06:54;4.70;99.90
20654;DHT22;21083;50.898;4.902;2022-11-20T01:09:20;4.60;99.90
20654;DHT22;21083;50.898;4.902;2022-11-20T01:11:47;4.60;99.90
20654;DHT22;21083;50.898;4.902;2022-11-20T01:14:18;4.70;99.90
20654;DHT22;21083;50.898;4.902;2022-11-20T01:16:46;4.80;99.90
20654;DHT22;21083;50.898;4.902;2022-11-20T01:19:16;4.80;99.90
20654;DHT22;21083;50.898;4.902;2022-11-20T01:21:44;4.80;99.90
20654;DHT22;21083;50.898;4.902;2022-11-20T01:24:13;4.90;99.90
20654;DHT22;21083;50.898;4.902;2022-11-20T01:26:42;4.90;99.90
20654;DHT22;21083;50.898;4.902;2022-11-20T01:29:13;5.00;99.90
20654;DHT22;21083;50.898;4.902;2022-11-20T01:31:42;5.00;99.90
20654;DHT22;21083;50.898;4.902;2022-11-20T01:34:12;5.00;99.90
20654;DHT22;21083;50.898;4.902;2022-11-20T01:36:39;4.90;99.90
20654;DHT22;21083;50.898;4.902;2022-11-20T01:39:10;5.10;99.90
20654;DHT22;21083;50.898;4.902;2022-11-20T01:41:38;5.10;99.90
20654;DHT22;21083;50.898;4.902;2022-11-20T01:44:45;5.00;99.90
20654;DHT22;21083;50.898;4.902;2022-11-20T01:47:20;4.90;99.90
20654;DHT22;21083;50.898;4.902;2022-11-20T01:49:51;4.90;99.90
20654;DHT22;21083;50.898;4.902;2022-11-20T01:52:21;4.90;99.90
20654;DHT22;21083;50.898;4.902;2022-11-20T01:54:53;4.90;99.90
20654;DHT22;21083;50.898;4.902;2022-11-20T01:57:22;5.00;99.90
20654;DHT22;21083;50.898;4.902;2022-11-20T01:59:54;5.10;99.90
20654;DHT22;21083;50.898;4.902;2022-11-20T02:02:23;5.10;99.90
20654;DHT22;21083;50.898;4.902;2022-11-20T02:04:51;5.00;99.90
20654;DHT22;21083;50.898;4.902;2022-11-20T02:07:21;5.00;99.90
20654;DHT22;21083;50.898;4.902;2022-11-20T02:09:49;4.90;99.90
20654;DHT22;21083;50.898;4.902;2022-11-20T02:12:16;4.80;99.90
20654;DHT22;21083;50.898;4.902;2022-11-20T02:14:57;4.80;99.90
20654;DHT22;21083;50.898;4.902;2022-11-20T02:17:25;4.50;99.90
20654;DHT22;21083;50.898;4.902;2022-11-20T02:19:52;4.50;99.90
20654;DHT22;21083;50.898;4.902;2022-11-20T02:22:25;4.60;99.90
20654;DHT22;21083;50.898;4.902;2022-11-20T02:24:56;4.60;99.90
20654;DHT22;21083;50.898;4.902;2022-11-20T02:27:26;4.70;99.90
20654;DHT22;21083;50.898;4.902;2022-11-20T02:29:55;4.90;99.90
20654;DHT22;21083;50.898;4.902;2022-11-20T02:32:26;5.00;99.90
20654;DHT22;21083;50.898;4.902;2022-11-20T02:34:53;5.00;99.90
20654;DHT22;21083;50.898;4.902;2022-11-20T02:37:21;5.10;99.90
20654;DHT22;21083;50.898;4.902;2022-11-20T02:39:50;4.80;99.90
20654;DHT22;21083;50.898;4.902;2022-11-20T02:42:19;4.80;99.90
20654;DHT22;21083;50.898;4.902;2022-11-20T02:44:46;4.70;99.90
20654;DHT22;21083;50.898;4.902;2022-11-20T02:47:12;4.80;99.90
20654;DHT22;21083;50.898;4.902;2022-11-20T02:49:40;4.70;99.90
20654;DHT22;21083;50.898;4.902;2022-11-20T02:52:07;4.80;99.90
20654;DHT22;21083;50.898;4.902;2022-11-20T02:54:34;4.80;99.90
20654;DHT22;21083;50.898;4.902;2022-11-20T02:57:01;4.70;99.90
20654;DHT22;21083;50.898;4.902;2022-11-20T02:59:29;4.80;99.90
20654;DHT22;21083;50.898;4.902;2022-11-20T03:01:56;4.80;99.90
20654;DHT22;21083;50.898;4.902;2022-11-20T03:04:23;4.80;99.90
20654;DHT22;21083;50.898;4.902;2022-11-20T03:06:50;4.90;99.90
20654;DHT22;21083;50.898;4.902;2022-11-20T03:09:16;5.00;99.90
20654;DHT22;21083;50.898;4.902;2022-11-20T03:11:43;5.10;99.90
20654;DHT22;21083;50.898;4.902;2022-11-20T03:14:10;5.10;99.90
20654;DHT22;21083;50.898;4.902;2022-11-20T03:16:38;5.10;99.90
20654;DHT22;21083;50.898;4.902;2022-11-20T03:19:05;5.00;99.90
20654;DHT22;21083;50.898;4.902;2022-11-20T03:21:33;5.10;99.90
20654;DHT22;21083;50.898;4.902;2022-11-20T03:24:00;5.00;99.90
20654;DHT22;21083;50.898;4.902;2022-11-20T03:26:28;4.90;99.90
20654;DHT22;21083;50.898;4.902;2022-11-20T03:28:56;4.90;99.90
20654;DHT22;21083;50.898;4.902;2022-11-20T03:31:25;5.00;99.90
20654;DHT22;21083;50.898;4.902;2022-11-20T03:33:53;5.10;99.90
20654;DHT22;21083;50.898;4.902;2022-11-20T03:36:21;5.10;99.90
20654;DHT22;21083;50.898;4.902;2022-11-20T03:38:48;5.20;99.90
20654;DHT22;21083;50.898;4.902;2022-11-20T03:41:16;5.20;99.90
20654;DHT22;21083;50.898;4.902;2022-11-20T03:43:47;5.30;99.90
20654;DHT22;21083;50.898;4.902;2022-11-20T03:46:14;5.20;99.90
20654;DHT22;21083;50.898;4.902;2022-11-20T03:48:41;5.20;99.90
20654;DHT22;21083;50.898;4.902;2022-11-20T03:51:11;5.30;99.90
20654;DHT22;21083;50.898;4.902;2022-11-20T03:53:39;5.20;99.90
20654;DHT22;21083;50.898;4.902;2022-11-20T03:56:07;5.20;99.90
20654;DHT22;21083;50.898;4.902;2022-11-20T03:58:36;4.90;99.90
20654;DHT22;21083;50.898;4.902;2022-11-20T04:01:07;4.70;99.90
20654;DHT22;21083;50.898;4.902;2022-11-20T04:03:35;4.70;99.90
20654;DHT22;21083;50.898;4.902;2022-11-20T04:06:03;4.70;99.90
20654;DHT22;21083;50.898;4.902;2022-11-20T04:08:32;4.60;99.90
20654;DHT22;21083;50.898;4.902;2022-11-20T04:11:09;4.60;99.90
20654;DHT22;21083;50.898;4.902;2022-11-20T04:13:36;4.70;99.90
20654;DHT22;21083;50.898;4.902;2022-11-20T04:16:04;4.70;99.90
20654;DHT22;21083;50.898;4.902;2022-11-20T04:18:31;4.50;99.90
20654;DHT22;21083;50.898;4.902;2022-11-20T04:20:58;4.60;99.90
20654;DHT22;21083;50.898;4.902;2022-11-20T04:23:25;4.50;99.90
20654;DHT22;21083;50.898;4.902;2022-11-20T04:25:53;4.30;99.90
20654;DHT22;21083;50.898;4.902;2022-11-20T04:28:20;4.60;99.90
20654;DHT22;21083;50.898;4.902;2022-11-20T04:30:47;4.70;99.90
20654;DHT22;21083;50.898;4.902;2022-11-20T04:33:14;4.80;99.90
20654;DHT22;21083;50.898;4.902;2022-11-20T04:35:41;4.80;99.90
20654;DHT22;21083;50.898;4.902;2022-11-20T04:38:08;4.90;99.90
20654;DHT22;21083;50.898;4.902;2022-11-20T04:40:34;4.90;99.90
20654;DHT22;21083;50.898;4.902;2022-11-20T04:43:03;4.80;99.90
20654;DHT22;21083;50.898;4.902;2022-11-20T04:45:29;5.00;99.90
20654;DHT22;21083;50.898;4.902;2022-11-20T04:47:56;5.10;99.90
20654;DHT22;21083;50.898;4.902;2022-11-20T04:50:23;5.10;99.90
20654;DHT22;21083;50.898;4.902;2022-11-20T04:52:50;5.10;99.90
20654;DHT22;21083;50.898;4.902;2022-11-20T04:55:17;5.00;99.90
20654;DHT22;21083;50.898;4.902;2022-11-20T04:57:44;4.90;99.90
20654;DHT22;21083;50.898;4.902;2022-11-20T05:00:13;4.90;99.90
20654;DHT22;21083;50.898;4.902;2022-11-20T05:02:40;4.80;99.90
20654;DHT22;21083;50.898;4.902;2022-11-20T05:05:08;4.90;99.90
20654;DHT22;21083;50.898;4.902;2022-11-20T05:07:34;5.00;99.90
20654;DHT22;21083;50.898;4.902;2022-11-20T05:10:01;5.00;99.90
20654;DHT22;21083;50.898;4.902;2022-11-20T05:12:28;4.90;99.90
20654;DHT22;21083;50.898;4.902;2022-11-20T05:14:55;5.00;99.90
20654;DHT22;21083;50.898;4.902;2022-11-20T05:17:23;5.00;99.90
20654;DHT22;21083;50.898;4.902;2022-11-20T05:19:50;5.10;99.90
20654;DHT22;21083;50.898;4.902;2022-11-20T05:22:17;5.00;99.90
20654;DHT22;21083;50.898;4.902;2022-11-20T05:24:44;5.10;99.90
20654;DHT22;21083;50.898;4.902;2022-11-20T05:27:11;5.10;99.90
20654;DHT22;21083;50.898;4.902;2022-11-20T05:29:37;5.10;99.90
20654;DHT22;21083;50.898;4.902;2022-11-20T05:32:05;5.10;99.90
20654;DHT22;21083;50.898;4.902;2022-11-20T05:34:36;5.10;99.90
20654;DHT22;21083;50.898;4.902;2022-11-20T05:37:03;5.10;99.90
20654;DHT22;21083;50.898;4.902;2022-11-20T05:39:30;5.10;99.90
20654;DHT22;21083;50.898;4.902;2022-11-20T05:41:56;5.10;99.90
20654;DHT22;21083;50.898;4.902;2022-11-20T05:44:37;5.10;99.90
20654;DHT22;21083;50.898;4.902;2022-11-20T05:47:04;5.10;99.90
20654;DHT22;21083;50.898;4.902;2022-11-20T05:49:32;5.00;99.90
20654;DHT22;21083;50.898;4.902;2022-11-20T05:52:00;5.00;99.90
20654;DHT22;21083;50.898;4.902;2022-11-20T05:54:27;4.90;99.90
20654;DHT22;21083;50.898;4.902;2022-11-20T05:56:53;4.80;99.90
20654;DHT22;21083;50.898;4.902;2022-11-20T05:59:20;4.70;99.90
20654;DHT22;21083;50.898;4.902;2022-11-20T06:01:47;4.80;99.90
20654;DHT22;21083;50.898;4.902;2022-11-20T06:04:14;4.90;99.90
20654;DHT22;21083;50.898;4.902;2022-11-20T06:06:41;4.90;99.90
20654;DHT22;21083;50.898;4.902;2022-11-20T06:09:09;5.00;99.90
20654;DHT22;21083;50.898;4.902;2022-11-20T06:11:36;5.00;99.90
20654;DHT22;21083;50.898;4.902;2022-11-20T06:14:03;5.10;99.90
20654;DHT22;21083;50.898;4.902;2022-11-20T06:16:30;5.10;99.90
20654;DHT22;21083;50.898;4.902;2022-11-20T06:18:57;5.20;99.90
20654;DHT22;21083;50.898;4.902;2022-11-20T06:21:24;5.10;99.90
20654;DHT22;21083;50.898;4.902;2022-11-20T06:23:52;5.20;99.90
20654;DHT22;21083;50.898;4.902;2022-11-20T06:26:22;5.20;99.90
20654;DHT22;21083;50.898;4.902;2022-11-20T06:28:50;5.30;99.90
20654;DHT22;21083;50.898;4.902;2022-11-20T06:31:19;5.20;99.90
20654;DHT22;21083;50.898;4.902;2022-11-20T06:33:46;5.20;99.90
20654;DHT22;21083;50.898;4.902;2022-11-20T06:36:15;5.20;99.90
20654;DHT22;21083;50.898;4.902;2022-11-20T06:38:42;5.20;99.90
20654;DHT22;21083;50.898;4.902;2022-11-20T06:41:12;5.10;99.90
20654;DHT22;21083;50.898;4.902;2022-11-20T06:43:41;5.10;99.90
20654;DHT22;21083;50.898;4.902;2022-11-20T06:46:09;5.10;99.90
20654;DHT22;21083;50.898;4.902;2022-11-20T06:48:36;5.00;99.90
20654;DHT22;21083;50.898;4.902;2022-11-20T06:51:04;5.10;99.90
20654;DHT22;21083;50.898;4.902;2022-11-20T06:53:32;5.10;99.90
20654;DHT22;21083;50.898;4.902;2022-11-20T06:55:59;5.10;99.90
20654;DHT22;21083;50.898;4.902;2022-11-20T06:58:27;5.20;99.90
20654;DHT22;21083;50.898;4.902;2022-11-20T07:00:57;5.20;99.90
20654;DHT22;21083;50.898;4.902;2022-11-20T07:03:24;5.20;99.90
20654;DHT22;21083;50.898;4.902;2022-11-20T07:05:53;5.20;99.90
20654;DHT22;21083;50.898;4.902;2022-11-20T07:08:20;5.20;99.90
20654;DHT22;21083;50.898;4.902;2022-11-20T07:10:47;5.20;99.90
20654;DHT22;21083;50.898;4.902;2022-11-20T07:13:14;5.30;99.90
20654;DHT22;21083;50.898;4.902;2022-11-20T07:15:41;5.30;99.90
20654;DHT22;21083;50.898;4.902;2022-11-20T07:18:09;5.40;99.90
20654;DHT22;21083;50.898;4.902;2022-11-20T07:20:36;5.40;99.90
20654;DHT22;21083;50.898;4.902;2022-11-20T07:23:03;5.40;99.90
20654;DHT22;21083;50.898;4.902;2022-11-20T07:25:30;5.40;99.90
20654;DHT22;21083;50.898;4.902;2022-11-20T07:27:57;5.40;99.90
20654;DHT22;21083;50.898;4.902;2022-11-20T07:30:24;5.50;99.90
20654;DHT22;21083;50.898;4.902;2022-11-20T07:32:51;5.50;99.90
20654;DHT22;21083;50.898;4.902;2022-11-20T07:35:20;5.40;99.90
20654;DHT22;21083;50.898;4.902;2022-11-20T07:37:47;5.50;99.90
20654;DHT22;21083;50.898;4.902;2022-11-20T07:40:14;5.50;99.90
20654;DHT22;21083;50.898;4.902;2022-11-20T07:42:47;5.50;99.90
20654;DHT22;21083;50.898;4.902;2022-11-20T07:45:14;5.50;99.90
20654;DHT22;21083;50.898;4.902;2022-11-20T07:47:41;5.40;99.90
20654;DHT22;21083;50.898;4.902;2022-11-20T07:50:08;5.50;99.90
20654;DHT22;21083;50.898;4.902;2022-11-20T07:52:37;5.50;99.90
20654;DHT22;21083;50.898;4.902;2022-11-20T07:55:04;5.60;99.90
20654;DHT22;21083;50.898;4.902;2022-11-20T07:57:31;5.60;99.90
20654;DHT22;21083;50.898;4.902;2022-11-20T07:59:58;5.50;99.90
20654;DHT22;21083;50.898;4.902;2022-11-20T08:02:25;5.50;99.90
20654;DHT22;21083;50.898;4.902;2022-11-20T08:04:52;5.60;99.90
20654;DHT22;21083;50.898;4.902;2022-11-20T08:07:19;5.60;99.90
20654;DHT22;21083;50.898;4.902;2022-11-20T08:09:47;5.60;99.90
20654;DHT22;21083;50.898;4.902;2022-11-20T08:12:17;5.70;99.90
20654;DHT22;21083;50.898;4.902;2022-11-20T08:15:02;5.70;99.90
20654;DHT22;21083;50.898;4.902;2022-11-20T08:17:29;5.80;99.90
20654;DHT22;21083;50.898;4.902;2022-11-20T08:19:56;5.80;99.90
20654;DHT22;21083;50.898;4.902;2022-11-20T08:22:23;5.80;99.90
20654;DHT22;21083;50.898;4.902;2022-11-20T08:24:52;5.80;99.90
20654;DHT22;21083;50.898;4.902;2022-11-20T08:27:18;5.90;99.90
20654;DHT22;21083;50.898;4.902;2022-11-20T08:29:45;6.00;99.90
20654;DHT22;21083;50.898;4.902;2022-11-20T08:32:12;6.00;99.90
20654;DHT22;21083;50.898;4.902;2022-11-20T08:34:39;6.10;99.90
20654;DHT22;21083;50.898;4.902;2022-11-20T08:37:06;6.10;99.90
20654;DHT22;21083;50.898;4.902;2022-11-20T08:39:33;6.20;99.90
20654;DHT22;21083;50.898;4.902;2022-11-20T08:42:01;6.30;99.90
20654;DHT22;21083;50.898;4.902;2022-11-20T08:44:28;6.30;99.90
20654;DHT22;21083;50.898;4.902;2022-11-20T08:46:55;6.40;99.90
20654;DHT22;21083;50.898;4.902;2022-11-20T08:49:22;6.40;99.90
20654;DHT22;21083;50.898;4.902;2022-11-20T08:51:49;6.40;99.90
20654;DHT22;21083;50.898;4.902;2022-11-20T08:54:19;6.40;99.90
20654;DHT22;21083;50.898;4.902;2022-11-20T08:56:47;6.40;99.90
20654;DHT22;21083;50.898;4.902;2022-11-20T08:59:15;6.40;99.90
20654;DHT22;21083;50.898;4.902;2022-11-20T09:01:42;6.40;99.90
20654;DHT22;21083;50.898;4.902;2022-11-20T09:04:09;6.40;99.90
20654;DHT22;21083;50.898;4.902;2022-11-20T09:06:37;6.50;99.90
20654;DHT22;21083;50.898;4.902;2022-11-20T09:09:04;6.60;99.90
20654;DHT22;21083;50.898;4.902;2022-11-20T09:11:31;6.70;99.90
20654;DHT22;21083;50.898;4.902;2022-11-20T09:13:58;6.70;99.90
20654;DHT22;21083;50.898;4.902;2022-11-20T09:16:27;6.70;99.90
20654;DHT22;21083;50.898;4.902;2022-11-20T09:18:53;6.70;99.90
20654;DHT22;21083;50.898;4.902;2022-11-20T09:21:20;6.70;99.90
20654;DHT22;21083;50.898;4.902;2022-11-20T09:23:48;6.80;99.90
20654;DHT22;21083;50.898;4.902;2022-11-20T09:26:15;6.90;99.90
20654;DHT22;21083;50.898;4.902;2022-11-20T09:28:42;6.80;99.90
20654;DHT22;21083;50.898;4.902;2022-11-20T09:31:13;6.80;99.90
20654;DHT22;21083;50.898;4.902;2022-11-20T09:33:45;6.80;99.90
20654;DHT22;21083;50.898;4.902;2022-11-20T09:36:12;6.90;99.90
20654;DHT22;21083;50.898;4.902;2022-11-20T09:38:39;6.90;99.90
20654;DHT22;21083;50.898;4.902;2022-11-20T09:41:17;7.00;99.90
20654;DHT22;21083;50.898;4.902;2022-11-20T09:43:57;7.00;99.90
20654;DHT22;21083;50.898;4.902;2022-11-20T09:46:31;7.00;99.90
20654;DHT22;21083;50.898;4.902;2022-11-20T09:49:19;7.10;99.90
20654;DHT22;21083;50.898;4.902;2022-11-20T09:51:53;7.10;99.90
20654;DHT22;21083;50.898;4.902;2022-11-20T09:54:27;7.10;99.90
20654;DHT22;21083;50.898;4.902;2022-11-20T09:56:59;7.20;99.90
20654;DHT22;21083;50.898;4.902;2022-11-20T09:59:35;7.20;99.90
20654;DHT22;21083;50.898;4.902;2022-11-20T10:02:19;7.20;99.90
20654;DHT22;21083;50.898;4.902;2022-11-20T10:04:57;7.30;99.90
20654;DHT22;21083;50.898;4.902;2022-11-20T10:07:30;7.40;99.90
20654;DHT22;21083;50.898;4.902;2022-11-20T10:09:59;7.40;99.90
20654;DHT22;21083;50.898;4.902;2022-11-20T10:12:34;7.40;99.90
20654;DHT22;21083;50.898;4.902;2022-11-20T10:15:17;7.40;99.90
20654;DHT22;21083;50.898;4.902;2022-11-20T10:18:04;7.50;99.90
20654;DHT22;21083;50.898;4.902;2022-11-20T10:20:46;7.50;99.90
20654;DHT22;21083;50.898;4.902;2022-11-20T10:23:33;7.50;99.90
20654;DHT22;21083;50.898;4.902;2022-11-20T10:26:17;7.70;99.90
20654;DHT22;21083;50.898;4.902;2022-11-20T10:29:01;7.70;99.90
20654;DHT22;21083;50.898;4.902;2022-11-20T10:31:32;7.80;99.90
20654;DHT22;21083;50.898;4.902;2022-11-20T10:34:01;7.90;99.90
20654;DHT22;21083;50.898;4.902;2022-11-20T10:36:35;7.90;99.90
20654;DHT22;21083;50.898;4.902;2022-11-20T10:39:11;7.90;99.90
20654;DHT22;21083;50.898;4.902;2022-11-20T10:41:42;8.00;99.90
20654;DHT22;21083;50.898;4.902;2022-11-20T10:44:15;7.90;99.90
20654;DHT22;21083;50.898;4.902;2022-11-20T10:47:04;8.00;99.90
20654;DHT22;21083;50.898;4.902;2022-11-20T10:49:33;8.00;99.90
20654;DHT22;21083;50.898;4.902;2022-11-20T10:52:07;8.20;99.90
20654;DHT22;21083;50.898;4.902;2022-11-20T10:54:42;8.20;99.90
20654;DHT22;21083;50.898;4.902;2022-11-20T10:57:20;8.30;99.90
20654;DHT22;21083;50.898;4.902;2022-11-20T11:00:00;8.40;99.90
20654;DHT22;21083;50.898;4.902;2022-11-20T11:02:38;8.40;99.90
20654;DHT22;21083;50.898;4.902;2022-11-20T11:05:18;8.50;99.90
20654;DHT22;21083;50.898;4.902;2022-11-20T11:07:50;8.50;99.90
20654;DHT22;21083;50.898;4.902;2022-11-20T11:10:18;8.60;99.90
20654;DHT22;21083;50.898;4.902;2022-11-20T11:12:47;8.60;99.90
20654;DHT22;21083;50.898;4.902;2022-11-20T11:15:25;8.70;99.90
20654;DHT22;21083;50.898;4.902;2022-11-20T11:17:52;8.80;99.90
20654;DHT22;21083;50.898;4.902;2022-11-20T11:20:21;8.90;99.90
20654;DHT22;21083;50.898;4.902;2022-11-20T11:22:51;9.00;99.90
20654;DHT22;21083;50.898;4.902;2022-11-20T11:25:24;9.10;99.90
20654;DHT22;21083;50.898;4.902;2022-11-20T11:27:52;9.30;99.90
20654;DHT22;21083;50.898;4.902;2022-11-20T11:30:24;9.50;99.90
20654;DHT22;21083;50.898;4.902;2022-11-20T11:33:02;9.80;99.90
20654;DHT22;21083;50.898;4.902;2022-11-20T11:35:29;9.90;99.90
20654;DHT22;21083;50.898;4.902;2022-11-20T11:38:04;9.90;99.90
20654;DHT22;21083;50.898;4.902;2022-11-20T11:40:34;9.90;99.90
20654;DHT22;21083;50.898;4.902;2022-11-20T11:43:05;9.80;99.90
20654;DHT22;21083;50.898;4.902;2022-11-20T11:45:55;9.90;99.90
20654;DHT22;21083;50.898;4.902;2022-11-20T11:48:21;9.80;99.90
20654;DHT22;21083;50.898;4.902;2022-11-20T11:50:49;9.90;99.90
20654;DHT22;21083;50.898;4.902;2022-11-20T11:53:20;9.80;99.90
20654;DHT22;21083;50.898;4.902;2022-11-20T11:55:52;9.70;99.90
20654;DHT22;21083;50.898;4.902;2022-11-20T11:58:34;9.60;99.90
20654;DHT22;21083;50.898;4.902;2022-11-20T12:01:17;9.50;99.90
20654;DHT22;21083;50.898;4.902;2022-11-20T12:03:54;9.60;99.90
20654;DHT22;21083;50.898;4.902;2022-11-20T12:06:23;9.50;99.90
20654;DHT22;21083;50.898;4.902;2022-11-20T12:08:53;9.50;99.90
20654;DHT22;21083;50.898;4.902;2022-11-20T12:11:29;9.60;99.90
20654;DHT22;21083;50.898;4.902;2022-11-20T12:14:00;9.70;99.90
20654;DHT22;21083;50.898;4.902;2022-11-20T12:16:31;9.80;99.90
20654;DHT22;21083;50.898;4.902;2022-11-20T12:19:01;9.80;99.90
20654;DHT22;21083;50.898;4.902;2022-11-20T12:21:32;9.70;99.90
20654;DHT22;21083;50.898;4.902;2022-11-20T12:24:22;9.70;99.90
20654;DHT22;21083;50.898;4.902;2022-11-20T12:27:03;9.60;99.90
20654;DHT22;21083;50.898;4.902;2022-11-20T12:29:40;9.70;99.90
20654;DHT22;21083;50.898;4.902;2022-11-20T12:32:28;9.90;99.90
20654;DHT22;21083;50.898;4.902;2022-11-20T12:35:03;9.90;99.90
20654;DHT22;21083;50.898;4.902;2022-11-20T12:37:37;9.80;99.90
20654;DHT22;21083;50.898;4.902;2022-11-20T12:40:23;9.60;99.90
20654;DHT22;21083;50.898;4.902;2022-11-20T12:43:04;9.60;99.90
20654;DHT22;21083;50.898;4.902;2022-11-20T12:45:56;9.50;99.90
20654;DHT22;21083;50.898;4.902;2022-11-20T12:48:42;9.40;99.90
20654;DHT22;21083;50.898;4.902;2022-11-20T12:51:34;9.10;99.90
20654;DHT22;21083;50.898;4.902;2022-11-20T12:54:19;9.00;99.90
20654;DHT22;21083;50.898;4.902;2022-11-20T12:56:57;8.90;99.90
20654;DHT22;21083;50.898;4.902;2022-11-20T12:59:46;8.90;99.90
20654;DHT22;21083;50.898;4.902;2022-11-20T13:02:24;9.00;99.90
20654;DHT22;21083;50.898;4.902;2022-11-20T13:05:08;9.00;99.90
20654;DHT22;21083;50.898;4.902;2022-11-20T13:07:42;9.00;99.90
20654;DHT22;21083;50.898;4.902;2022-11-20T13:10:16;8.90;99.90
20654;DHT22;21083;50.898;4.902;2022-11-20T13:12:49;8.70;99.90
20654;DHT22;21083;50.898;4.902;2022-11-20T13:15:26;8.80;99.90
20654;DHT22;21083;50.898;4.902;2022-11-20T13:18:01;8.90;99.90
20654;DHT22;21083;50.898;4.902;2022-11-20T13:20:29;8.80;99.90
20654;DHT22;21083;50.898;4.902;2022-11-20T13:22:57;8.80;99.90
20654;DHT22;21083;50.898;4.902;2022-11-20T13:25:25;8.80;99.90
20654;DHT22;21083;50.898;4.902;2022-11-20T13:27:55;8.90;99.90
20654;DHT22;21083;50.898;4.902;2022-11-20T13:30:24;8.90;99.90
20654;DHT22;21083;50.898;4.902;2022-11-20T13:32:52;8.90;99.90
20654;DHT22;21083;50.898;4.902;2022-11-20T13:35:30;8.90;99.90
20654;DHT22;21083;50.898;4.902;2022-11-20T13:38:06;9.00;99.90
20654;DHT22;21083;50.898;4.902;2022-11-20T13:40:36;9.00;99.90
20654;DHT22;21083;50.898;4.902;2022-11-20T13:43:26;9.00;99.90
20654;DHT22;21083;50.898;4.902;2022-11-20T13:45:58;9.10;99.90
20654;DHT22;21083;50.898;4.902;2022-11-20T13:48:29;9.20;99.90
20654;DHT22;21083;50.898;4.902;2022-11-20T13:51:14;9.20;99.90
20654;DHT22;21083;50.898;4.902;2022-11-20T13:56:54;9.10;99.90
20654;DHT22;21083;50.898;4.902;2022-11-20T13:59:38;9.00;99.90
20654;DHT22;21083;50.898;4.902;2022-11-20T14:02:11;9.00;99.90
20654;DHT22;21083;50.898;4.902;2022-11-20T14:04:42;9.00;99.90
20654;DHT22;21083;50.898;4.902;2022-11-20T14:07:11;9.00;99.90
20654;DHT22;21083;50.898;4.902;2022-11-20T14:09:38;8.90;99.90
20654;DHT22;21083;50.898;4.902;2022-11-20T14:12:16;8.90;99.90
20654;DHT22;21083;50.898;4.902;2022-11-20T14:14:50;8.90;99.90
20654;DHT22;21083;50.898;4.902;2022-11-20T14:17:19;8.80;99.90
20654;DHT22;21083;50.898;4.902;2022-11-20T14:19:47;8.90;99.90
20654;DHT22;21083;50.898;4.902;2022-11-20T14:22:21;8.90;99.90
20654;DHT22;21083;50.898;4.902;2022-11-20T14:24:49;8.90;99.90
20654;DHT22;21083;50.898;4.902;2022-11-20T14:27:18;8.80;99.90
20654;DHT22;21083;50.898;4.902;2022-11-20T14:29:49;8.90;99.90
20654;DHT22;21083;50.898;4.902;2022-11-20T14:32:17;9.00;99.90
20654;DHT22;21083;50.898;4.902;2022-11-20T14:34:48;9.00;99.90
20654;DHT22;21083;50.898;4.902;2022-11-20T14:37:20;8.90;99.90
20654;DHT22;21083;50.898;4.902;2022-11-20T14:39:53;8.70;99.90
20654;DHT22;21083;50.898;4.902;2022-11-20T14:42:22;8.60;99.90
20654;DHT22;21083;50.898;4.902;2022-11-20T14:44:52;8.50;99.90
20654;DHT22;21083;50.898;4.902;2022-11-20T14:47:22;8.60;99.90
20654;DHT22;21083;50.898;4.902;2022-11-20T14:49:51;8.60;99.90
20654;DHT22;21083;50.898;4.902;2022-11-20T14:52:19;8.70;99.90
20654;DHT22;21083;50.898;4.902;2022-11-20T14:54:47;8.70;99.90
20654;DHT22;21083;50.898;4.902;2022-11-20T14:57:23;8.50;99.90
20654;DHT22;21083;50.898;4.902;2022-11-20T15:00:04;8.60;99.90
20654;DHT22;21083;50.898;4.902;2022-11-20T15:02:31;8.60;99.90
20654;DHT22;21083;50.898;4.902;2022-11-20T15:04:59;8.60;99.90
20654;DHT22;21083;50.898;4.902;2022-11-20T15:07:30;8.70;99.90
20654;DHT22;21083;50.898;4.902;2022-11-20T15:10:01;8.70;99.90
20654;DHT22;21083;50.898;4.902;2022-11-20T15:12:30;8.60;99.90
20654;DHT22;21083;50.898;4.902;2022-11-20T15:14:58;8.70;99.90
20654;DHT22;21083;50.898;4.902;2022-11-20T15:17:25;8.60;99.90
20654;DHT22;21083;50.898;4.902;2022-11-20T15:19:53;8.50;99.90
20654;DHT22;21083;50.898;4.902;2022-11-20T15:22:21;8.50;99.90
20654;DHT22;21083;50.898;4.902;2022-11-20T15:24:48;8.40;99.90
20654;DHT22;21083;50.898;4.902;2022-11-20T15:27:14;8.40;99.90
20654;DHT22;21083;50.898;4.902;2022-11-20T15:29:42;8.60;99.90
20654;DHT22;21083;50.898;4.902;2022-11-20T15:32:10;8.60;99.90
20654;DHT22;21083;50.898;4.902;2022-11-20T15:34:37;8.50;99.90
20654;DHT22;21083;50.898;4.902;2022-11-20T15:37:04;8.50;99.90
20654;DHT22;21083;50.898;4.902;2022-11-20T15:39:31;8.50;99.90
20654;DHT22;21083;50.898;4.902;2022-11-20T15:41:57;8.50;99.90
20654;DHT22;21083;50.898;4.902;2022-11-20T15:44:24;8.60;99.90
20654;DHT22;21083;50.898;4.902;2022-11-20T15:46:51;8.50;99.90
20654;DHT22;21083;50.898;4.902;2022-11-20T15:49:19;8.50;99.90
20654;DHT22;21083;50.898;4.902;2022-11-20T15:51:49;8.50;99.90
20654;DHT22;21083;50.898;4.902;2022-11-20T15:54:20;8.60;99.90
20654;DHT22;21083;50.898;4.902;2022-11-20T15:56:47;8.50;99.90
20654;DHT22;21083;50.898;4.902;2022-11-20T15:59:14;8.70;99.90
20654;DHT22;21083;50.898;4.902;2022-11-20T16:01:41;8.70;99.90
20654;DHT22;21083;50.898;4.902;2022-11-20T16:04:10;8.60;99.90
20654;DHT22;21083;50.898;4.902;2022-11-20T16:06:39;8.60;99.90